createdAt,value
2022-08-26T00:00:57.386Z,20679.72
2022-08-26T00:03:26.419Z,20610.59
2022-08-26T00:05:55.925Z,20618.72
2022-08-26T00:08:24.317Z,20610.59
2022-08-26T00:10:53.929Z,20635.00
2022-08-26T00:13:22.249Z,20594.34
2022-08-26T00:15:51.308Z,20635.00
2022-08-26T00:18:22.175Z,20616.69
2022-08-26T00:20:52.208Z,20610.59
2022-08-26T00:23:20.552Z,20616.69
2022-08-26T00:25:54.465Z,20549.63
2022-08-26T00:28:25.856Z,20551.66
2022-08-26T00:30:54.204Z,20539.47
2022-08-26T00:33:23.005Z,20521.16
2022-08-26T00:35:51.677Z,20506.94
2022-08-26T00:38:21.249Z,20488.63
2022-08-26T00:40:56.143Z,20476.44
2022-08-26T00:43:26.400Z,20482.53
2022-08-26T00:46:02.296Z,20395.13
2022-08-26T00:48:34.839Z,20401.22
2022-08-26T00:51:09.911Z,20358.56
2022-08-26T00:53:46.304Z,20321.97
2022-08-26T00:56:30.114Z,20336.19
2022-08-26T00:59:04.801Z,20332.13
2022-08-26T01:01:33.232Z,20338.22
2022-08-26T01:04:02.739Z,20289.44
2022-08-26T01:06:31.361Z,20281.31
2022-08-26T01:08:59.516Z,20250.81
2022-08-26T01:11:29.256Z,20271.16
2022-08-26T01:14:02.063Z,20232.53
2022-08-26T01:16:33.199Z,20244.72
2022-08-26T01:19:14.156Z,20238.63
2022-08-26T01:21:50.904Z,20204.06
2022-08-26T01:24:20.873Z,20185.78
2022-08-26T01:26:50.099Z,20200.00
2022-08-26T01:29:20.871Z,20216.25
2022-08-26T01:31:59.123Z,20204.06
2022-08-26T01:34:32.299Z,20130.91
2022-08-26T01:37:14.166Z,20145.13
2022-08-26T01:39:49.373Z,20171.56
2022-08-26T01:42:21.541Z,20130.91
2022-08-26T01:44:58.605Z,20165.44
2022-08-26T01:47:31.822Z,20130.91
2022-08-26T01:50:04.414Z,20082.13
2022-08-26T01:52:36.812Z,20084.16
2022-08-26T01:55:09.169Z,20067.88
2022-08-26T01:57:38.267Z,20055.69
2022-08-26T02:00:10.822Z,20090.25
2022-08-26T02:02:39.107Z,20080.09
2022-08-26T02:05:12.839Z,20076.03
2022-08-26T02:07:42.439Z,20067.88
2022-08-26T02:10:13.960Z,20027.25
2022-08-26T02:12:43.156Z,20013.00
2022-08-26T02:15:13.882Z,20019.13
2022-08-26T02:17:47.656Z,19978.47
2022-08-26T02:20:21.550Z,20047.56
2022-08-26T02:22:49.942Z,19972.38
2022-08-26T02:25:29.011Z,19966.28
2022-08-26T02:27:57.676Z,20004.88
2022-08-26T02:30:29.917Z,20008.94
2022-08-26T02:33:00.194Z,20004.88
2022-08-26T02:35:28.411Z,20010.97
2022-08-26T02:38:00.282Z,19947.97
2022-08-26T02:40:34.649Z,19954.06
2022-08-26T02:43:04.661Z,19947.97
2022-08-26T02:45:38.063Z,19927.66
2022-08-26T02:48:13.922Z,19943.91
2022-08-26T02:50:42.823Z,20039.44
2022-08-26T02:53:13.216Z,19998.78
2022-08-26T02:55:43.296Z,19998.78
2022-08-26T02:58:12.277Z,19947.97
2022-08-26T03:00:52.836Z,19950.00
2022-08-26T03:03:23.743Z,19996.75
2022-08-26T03:05:52.176Z,19935.78
2022-08-26T03:08:22.168Z,19960.16
2022-08-26T03:10:51.797Z,19964.25
2022-08-26T03:13:19.941Z,19889.03
2022-08-26T03:15:48.085Z,19919.53
2022-08-26T03:18:16.437Z,19911.41
2022-08-26T03:20:45.503Z,19891.06
2022-08-26T03:23:13.673Z,19921.56
2022-08-26T03:25:42.327Z,19895.13
2022-08-26T03:28:12.090Z,19858.56
2022-08-26T03:30:45.322Z,19887.00
2022-08-26T03:33:15.272Z,19874.81
2022-08-26T03:35:47.349Z,19840.25
2022-08-26T03:38:16.199Z,19799.63
2022-08-26T03:40:45.486Z,19789.44
2022-08-26T03:43:17.474Z,19763.03
2022-08-26T03:45:46.450Z,19754.91
2022-08-26T03:48:15.344Z,19744.75
2022-08-26T03:50:43.830Z,19742.72
2022-08-26T03:53:12.767Z,19704.09
2022-08-26T03:55:43.185Z,19716.28
2022-08-26T03:58:11.893Z,19693.94
2022-08-26T04:00:41.449Z,19691.91
2022-08-26T04:03:14.652Z,19712.22
2022-08-26T04:05:46.218Z,19730.50
2022-08-26T04:08:14.859Z,19702.06
2022-08-26T04:10:43.457Z,19691.91
2022-08-26T04:13:12.249Z,19720.34
2022-08-26T04:15:41.939Z,19738.66
2022-08-26T04:18:10.211Z,19691.91
2022-08-26T04:20:39.032Z,19671.56
2022-08-26T04:23:07.303Z,19681.75
2022-08-26T04:25:35.861Z,19655.31
2022-08-26T04:28:04.637Z,19649.22
2022-08-26T04:30:33.317Z,19661.41
2022-08-26T04:33:04.421Z,19695.97
2022-08-26T04:35:41.029Z,19665.47
2022-08-26T04:38:12.239Z,19673.59
2022-08-26T04:40:46.728Z,19637.03
2022-08-26T04:43:15.340Z,19616.72
2022-08-26T04:45:43.990Z,19683.78
2022-08-26T04:48:13.492Z,19635.00
2022-08-26T04:50:45.098Z,19671.56
2022-08-26T04:53:17.644Z,19693.94
2022-08-26T04:55:45.878Z,19730.50
2022-08-26T04:58:17.133Z,19724.41
2022-08-26T05:00:46.282Z,19750.84
2022-08-26T05:03:17.192Z,19756.94
2022-08-26T05:05:49.811Z,19809.78
2022-08-26T05:08:21.057Z,19840.25
2022-08-26T05:10:54.599Z,19864.66
2022-08-26T05:13:27.117Z,19834.16
2022-08-26T05:16:01.313Z,19864.66
2022-08-26T05:18:31.145Z,19870.75
2022-08-26T05:20:59.256Z,19917.50
2022-08-26T05:23:27.731Z,19927.66
2022-08-26T05:25:59.128Z,19927.66
2022-08-26T05:28:30.486Z,19980.50
2022-08-26T05:30:58.745Z,19972.38
2022-08-26T05:33:26.902Z,19984.56
2022-08-26T05:35:56.407Z,20023.19
2022-08-26T05:38:25.057Z,20061.78
2022-08-26T05:40:58.615Z,20104.47
2022-08-26T05:43:27.611Z,20104.47
2022-08-26T05:45:56.063Z,20155.28
2022-08-26T05:48:24.860Z,20200.00
2022-08-26T05:50:54.447Z,20301.63
2022-08-26T05:53:26.248Z,20336.19
2022-08-26T05:55:56.188Z,20372.78
2022-08-26T05:58:25.119Z,20413.44
2022-08-26T06:01:01.223Z,20429.69
2022-08-26T06:03:31.582Z,20437.81
2022-08-26T06:06:00.197Z,20464.25
2022-08-26T06:08:29.909Z,20474.41
2022-08-26T06:11:02.834Z,20529.28
2022-08-26T06:13:31.957Z,20525.22
2022-08-26T06:16:04.237Z,20574.00
2022-08-26T06:18:36.462Z,20637.03
2022-08-26T06:21:16.012Z,20608.56
2022-08-26T06:24:18.827Z,20559.78
2022-08-26T06:26:51.397Z,20618.72
2022-08-26T06:29:24.028Z,20667.53
2022-08-26T06:31:53.886Z,20671.59
2022-08-26T06:34:22.082Z,20673.63
2022-08-26T06:36:53.165Z,20693.94
2022-08-26T06:39:23.129Z,20671.59
2022-08-26T06:41:51.413Z,20651.25
2022-08-26T06:44:21.027Z,20641.09
2022-08-26T06:46:50.398Z,20700.03
2022-08-26T06:49:26.758Z,20610.59
2022-08-26T06:51:58.085Z,20582.16
2022-08-26T06:54:30.185Z,20529.28
2022-08-26T06:56:58.858Z,20582.16
2022-08-26T06:59:27.603Z,20525.22
2022-08-26T07:01:56.220Z,20504.91
2022-08-26T07:04:24.976Z,20539.47
2022-08-26T07:06:56.984Z,20555.72
2022-08-26T07:09:33.087Z,20561.81
2022-08-26T07:12:01.910Z,20639.06
2022-08-26T07:14:31.744Z,20720.38
2022-08-26T07:17:01.309Z,20765.09
2022-08-26T07:19:30.919Z,20805.75
2022-08-26T07:22:01.872Z,20838.28
2022-08-26T07:24:32.243Z,20838.28
2022-08-26T07:27:02.951Z,20862.69
2022-08-26T07:29:34.332Z,20899.28
2022-08-26T07:32:03.942Z,20966.34
2022-08-26T07:34:33.646Z,20923.66
2022-08-26T07:37:02.238Z,20883.00
2022-08-26T07:39:33.645Z,20956.19
2022-08-26T07:42:07.737Z,20972.47
2022-08-26T07:44:37.500Z,21031.41
2022-08-26T07:47:24.041Z,21096.47
2022-08-26T07:49:54.587Z,21090.38
2022-08-26T07:52:26.695Z,21076.13
2022-08-26T07:54:58.066Z,21106.63
2022-08-26T07:57:26.917Z,21100.53
2022-08-26T07:59:55.954Z,21122.91
2022-08-26T08:02:26.486Z,21196.09
2022-08-26T08:04:56.713Z,21129.00
2022-08-26T08:07:38.635Z,21185.91
2022-08-26T08:10:20.831Z,21190.00
2022-08-26T08:12:50.845Z,21222.53
2022-08-26T08:15:24.135Z,21271.31
2022-08-26T08:17:53.069Z,21279.44
2022-08-26T08:20:23.118Z,21328.25
2022-08-26T08:22:53.492Z,21403.47
2022-08-26T08:25:24.898Z,21429.91
2022-08-26T08:27:53.059Z,21541.72
2022-08-26T08:30:24.333Z,21574.25
2022-08-26T08:32:53.629Z,21655.59
2022-08-26T08:35:26.224Z,21741.00
2022-08-26T08:37:56.463Z,21897.56
2022-08-26T08:40:28.209Z,22025.66
2022-08-26T08:43:04.613Z,22135.47
2022-08-26T08:45:39.793Z,22227.00
2022-08-26T08:48:20.785Z,22206.66
2022-08-26T08:51:03.379Z,22153.78
2022-08-26T08:53:37.444Z,22129.38
2022-08-26T08:56:23.635Z,22078.53
2022-08-26T08:59:14.147Z,22084.66
2022-08-26T09:02:03.284Z,22025.66
2022-08-26T09:05:03.314Z,22056.19
2022-08-26T09:07:38.205Z,22082.63
2022-08-26T09:10:35.115Z,22033.81
2022-08-26T09:13:09.284Z,22054.13
2022-08-26T09:15:56.783Z,22060.25
2022-08-26T09:18:46.193Z,22058.22
2022-08-26T09:21:18.189Z,22084.66
2022-08-26T09:23:49.632Z,22121.25
2022-08-26T09:26:24.727Z,22129.38
2022-08-26T09:29:01.681Z,22190.38
2022-08-26T09:31:34.123Z,22155.81
2022-08-26T09:34:17.433Z,22210.72
2022-08-26T09:36:50.235Z,22243.25
2022-08-26T09:39:34.635Z,22285.97
2022-08-26T09:42:11.797Z,22285.97
2022-08-26T09:45:00.151Z,22310.38
2022-08-26T09:47:32.923Z,22300.22
2022-08-26T09:50:09.561Z,22316.47
2022-08-26T09:52:40.356Z,22310.38
2022-08-26T09:55:20.996Z,22361.22
2022-08-26T09:57:52.210Z,22391.72
2022-08-26T10:00:34.002Z,22395.78
2022-08-26T10:03:04.876Z,22452.72
2022-08-26T10:05:48.475Z,22460.88
2022-08-26T10:08:24.878Z,22544.25
2022-08-26T10:10:56.184Z,22570.69
2022-08-26T10:13:33.037Z,22593.06
2022-08-26T10:16:15.692Z,22660.19
2022-08-26T10:18:55.724Z,22686.63
2022-08-26T10:21:36.600Z,22678.47
2022-08-26T10:24:08.135Z,22694.75
2022-08-26T10:26:46.320Z,22696.78
2022-08-26T10:29:21.405Z,22706.97
2022-08-26T10:32:03.408Z,22690.69
2022-08-26T10:34:33.218Z,22761.88
2022-08-26T10:37:15.559Z,22721.19
2022-08-26T10:39:57.109Z,22770.00
2022-08-26T10:42:35.159Z,22774.06
2022-08-26T10:45:12.025Z,22786.28
2022-08-26T10:47:51.355Z,22759.84
2022-08-26T10:50:23.781Z,22702.88
2022-08-26T10:53:03.090Z,22619.50
2022-08-26T10:55:44.271Z,22621.53
2022-08-26T10:58:32.939Z,22676.44
2022-08-26T11:01:35.799Z,22755.78
2022-08-26T11:04:28.462Z,22818.81
2022-08-26T11:07:36.230Z,22894.06
2022-08-26T11:10:32.019Z,22908.31
2022-08-26T11:13:03.537Z,22898.16
2022-08-26T11:16:01.074Z,22989.69
2022-08-26T11:18:48.717Z,23046.63
2022-08-26T11:25:04.017Z,23134.09
2022-08-26T11:28:07.432Z,23272.41
2022-08-26T11:30:56.859Z,23388.38
2022-08-26T11:33:58.020Z,23516.53
2022-08-26T11:36:45.341Z,23691.47
2022-08-26T11:39:23.033Z,23776.91
2022-08-26T11:41:55.679Z,23945.78
2022-08-26T11:44:30.084Z,23962.06
2022-08-26T11:47:01.589Z,24090.22
2022-08-26T11:49:33.365Z,24151.28
2022-08-26T11:52:21.574Z,24318.13
2022-08-26T11:55:04.668Z,24393.41
2022-08-26T11:57:43.146Z,24383.22
2022-08-26T12:00:22.549Z,24389.34
2022-08-26T12:02:52.631Z,24295.72
2022-08-26T12:05:31.100Z,23842.03
2022-08-26T12:08:08.176Z,23477.88
2022-08-26T12:10:38.647Z,23266.31
2022-08-26T12:13:09.781Z,23109.69
2022-08-26T12:15:38.512Z,22969.34
2022-08-26T12:18:29.051Z,22851.38
2022-08-26T12:21:02.687Z,22719.16
2022-08-26T12:23:43.351Z,22639.84
2022-08-26T12:26:24.254Z,22458.84
2022-08-26T12:29:00.005Z,22204.63
2022-08-26T12:31:33.045Z,21946.38
2022-08-26T12:34:05.948Z,21692.19
2022-08-26T12:36:40.793Z,21525.47
2022-08-26T12:39:12.213Z,21385.16
2022-08-26T12:41:49.587Z,21295.72
2022-08-26T12:44:53.915Z,21190.00
2022-08-26T12:47:32.774Z,21055.81
2022-08-26T12:50:19.831Z,21043.59
2022-08-26T12:53:00.021Z,20974.50
2022-08-26T12:55:39.929Z,20923.66
2022-08-26T12:58:21.283Z,20862.69
2022-08-26T13:00:52.916Z,20712.25
2022-08-26T13:03:43.209Z,20667.53
2022-08-26T13:06:29.794Z,20626.88
2022-08-26T13:09:00.699Z,20618.72
2022-08-26T13:11:32.432Z,20614.66
2022-08-26T13:14:06.799Z,20578.09
2022-08-26T13:16:38.166Z,20569.94
2022-08-26T13:19:10.404Z,20608.56
2022-08-26T13:21:47.758Z,20612.63
2022-08-26T13:24:19.408Z,20578.09
2022-08-26T13:26:50.367Z,20610.59
2022-08-26T13:29:20.282Z,20637.03
2022-08-26T13:31:51.464Z,20630.94
2022-08-26T13:34:23.930Z,20671.59
2022-08-26T13:36:55.199Z,20667.53
2022-08-26T13:39:23.855Z,20712.25
2022-08-26T13:41:52.994Z,20671.59
2022-08-26T13:44:21.655Z,20582.16
2022-08-26T13:46:51.165Z,20574.00
2022-08-26T13:49:19.277Z,20600.44
2022-08-26T13:51:47.474Z,20574.00
2022-08-26T13:54:15.668Z,20635.00
2022-08-26T13:56:43.954Z,20582.16
2022-08-26T13:59:12.114Z,20565.88
2022-08-26T14:01:40.260Z,20628.91
2022-08-26T14:04:09.749Z,20655.31
2022-08-26T14:06:37.872Z,20667.53
2022-08-26T14:09:06.501Z,20671.59
2022-08-26T14:11:50.874Z,20608.56
2022-08-26T14:14:23.073Z,20567.91
2022-08-26T14:16:59.651Z,20543.53
2022-08-26T14:19:31.025Z,20529.28
2022-08-26T14:22:00.769Z,20488.63
2022-08-26T14:24:30.166Z,20417.50
2022-08-26T14:26:58.620Z,20421.56
2022-08-26T14:29:26.853Z,20421.56
2022-08-26T14:31:58.674Z,20405.31
2022-08-26T14:34:27.012Z,20435.78
2022-08-26T14:36:56.524Z,20484.56
2022-08-26T14:39:24.836Z,20547.59
2022-08-26T14:41:57.382Z,20559.78
2022-08-26T14:44:30.521Z,20614.66
2022-08-26T14:47:02.041Z,20726.47
2022-08-26T14:49:31.303Z,20732.56
2022-08-26T14:52:01.272Z,20763.06
2022-08-26T14:54:29.484Z,20834.22
2022-08-26T14:57:03.461Z,20832.19
2022-08-26T14:59:36.393Z,20805.75
2022-08-26T15:02:06.278Z,20777.28
2022-08-26T15:04:35.432Z,20783.41
2022-08-26T15:07:05.935Z,20752.91
2022-08-26T15:09:37.526Z,20761.03
2022-08-26T15:12:06.642Z,20763.06
2022-08-26T15:14:34.831Z,20911.47
2022-08-26T15:17:03.007Z,20956.19
2022-08-26T15:19:31.163Z,20907.41
2022-08-26T15:21:59.325Z,20952.13
2022-08-26T15:24:29.632Z,20868.78
2022-08-26T15:26:58.323Z,20866.75
2022-08-26T15:29:26.774Z,20982.63
2022-08-26T15:31:55.281Z,20992.78
2022-08-26T15:34:25.718Z,21007.00
2022-08-26T15:36:54.056Z,21027.34
2022-08-26T15:39:22.471Z,21070.03
2022-08-26T15:41:52.105Z,21137.13
2022-08-26T15:44:20.679Z,21192.03
2022-08-26T15:46:52.520Z,21320.09
2022-08-26T15:49:24.550Z,21348.56
2022-08-26T15:51:52.716Z,21240.81
2022-08-26T15:54:24.306Z,21175.75
2022-08-26T15:56:53.869Z,21112.72
2022-08-26T15:59:23.523Z,21165.59
2022-08-26T16:01:51.997Z,21098.50
2022-08-26T16:04:20.394Z,21135.09
2022-08-26T16:06:52.106Z,21177.78
2022-08-26T16:09:24.285Z,21204.22
2022-08-26T16:11:54.514Z,21139.16
2022-08-26T16:14:23.596Z,21141.19
2022-08-26T16:16:52.114Z,21096.47
2022-08-26T16:19:21.372Z,21078.16
2022-08-26T16:21:50.775Z,21076.13
2022-08-26T16:24:24.872Z,21025.31
2022-08-26T16:26:55.897Z,20946.03
2022-08-26T16:29:24.511Z,20982.63
2022-08-26T16:31:53.791Z,20929.75
2022-08-26T16:34:22.847Z,20907.41
2022-08-26T16:36:51.230Z,20948.06
2022-08-26T16:39:19.354Z,20878.94
2022-08-26T16:41:47.451Z,20842.34
2022-08-26T16:44:17.042Z,20858.59
2022-08-26T16:46:45.620Z,20803.72
2022-08-26T16:49:13.976Z,20817.94
2022-08-26T16:51:42.217Z,20856.56
2022-08-26T16:54:10.735Z,20781.38
2022-08-26T16:56:39.867Z,20769.16
2022-08-26T16:59:11.431Z,20846.41
2022-08-26T17:01:41.017Z,20803.72
2022-08-26T17:04:09.237Z,20771.19
2022-08-26T17:06:38.236Z,20728.50
2022-08-26T17:09:06.808Z,20761.03
2022-08-26T17:11:35.347Z,20706.16
2022-08-26T17:14:03.872Z,20761.03
2022-08-26T17:16:32.507Z,20722.41
2022-08-26T17:19:02.451Z,20689.88
2022-08-26T17:21:30.729Z,20675.66
2022-08-26T17:23:59.316Z,20624.84
2022-08-26T17:26:28.052Z,20596.38
2022-08-26T17:28:56.837Z,20610.59
2022-08-26T17:31:25.888Z,20620.78
2022-08-26T17:33:55.500Z,20586.22
2022-08-26T17:36:27.713Z,20584.19
2022-08-26T17:38:57.831Z,20618.72
2022-08-26T17:41:26.954Z,20620.78
2022-08-26T17:43:55.335Z,20578.09
2022-08-26T17:46:24.338Z,20565.88
2022-08-26T17:48:53.013Z,20531.31
2022-08-26T17:51:22.900Z,20545.56
2022-08-26T17:53:53.586Z,20537.44
2022-08-26T17:56:25.635Z,20515.06
2022-08-26T17:58:56.452Z,20535.41
2022-08-26T18:01:28.066Z,20545.56
2022-08-26T18:04:00.395Z,20549.63
2022-08-26T18:06:30.243Z,20462.22
2022-08-26T18:09:01.218Z,20466.28
2022-08-26T18:11:31.119Z,20488.63
2022-08-26T18:13:59.930Z,20517.09
2022-08-26T18:16:31.835Z,20450.03
2022-08-26T18:19:00.847Z,20431.72
2022-08-26T18:21:29.497Z,20464.25
2022-08-26T18:23:59.020Z,20391.06
2022-08-26T18:26:31.051Z,20419.53
2022-08-26T18:29:00.085Z,20350.41
2022-08-26T18:31:29.181Z,20317.91
2022-08-26T18:34:00.172Z,20285.38
2022-08-26T18:36:32.351Z,20277.25
2022-08-26T18:39:02.865Z,20271.16
2022-08-26T18:41:33.979Z,20275.22
2022-08-26T18:44:02.093Z,20236.59
2022-08-26T18:46:30.328Z,20234.56
2022-08-26T18:48:59.406Z,20244.72
2022-08-26T18:51:30.568Z,20177.66
2022-08-26T18:54:02.844Z,20185.78
2022-08-26T18:56:31.619Z,20181.72
2022-08-26T18:59:00.055Z,20181.72
2022-08-26T19:01:30.499Z,20173.59
2022-08-26T19:04:01.347Z,20169.53
2022-08-26T19:06:32.895Z,20250.81
2022-08-26T19:09:03.445Z,20195.94
2022-08-26T19:11:37.259Z,20159.34
2022-08-26T19:14:16.784Z,20155.28
2022-08-26T19:16:48.710Z,20108.53
2022-08-26T19:19:17.571Z,20130.91
2022-08-26T19:21:46.931Z,20163.41
2022-08-26T19:24:19.698Z,20130.91
2022-08-26T19:26:57.771Z,20141.06
2022-08-26T19:29:31.138Z,20147.16
2022-08-26T19:31:59.701Z,20108.53
2022-08-26T19:34:28.012Z,20082.13
2022-08-26T19:36:58.246Z,20074.00
2022-08-26T19:39:28.214Z,20082.13
2022-08-26T19:41:56.404Z,20104.47
2022-08-26T19:44:43.066Z,20139.03
2022-08-26T19:47:15.747Z,20102.44
2022-08-26T19:49:43.910Z,20074.00
2022-08-26T19:52:12.423Z,20021.16
2022-08-26T19:54:42.301Z,20029.28
2022-08-26T19:57:11.095Z,20041.47
2022-08-26T19:59:40.260Z,20025.22
2022-08-26T20:02:11.142Z,20059.75
2022-08-26T20:04:41.547Z,20057.72
2022-08-26T20:07:12.957Z,20013.00
2022-08-26T20:09:44.879Z,20023.19
2022-08-26T20:12:13.595Z,19984.56
2022-08-26T20:14:42.337Z,19982.53
2022-08-26T20:17:10.572Z,19941.88
2022-08-26T20:19:56.244Z,19974.41
2022-08-26T20:22:24.630Z,19941.88
2022-08-26T20:24:56.646Z,19923.59
2022-08-26T20:27:38.010Z,19960.16
2022-08-26T20:30:10.269Z,19899.19
2022-08-26T20:32:39.424Z,19952.03
2022-08-26T20:35:12.834Z,19927.66
2022-08-26T20:37:42.136Z,19878.88
2022-08-26T20:40:15.458Z,19943.91
2022-08-26T20:42:43.695Z,19919.53
2022-08-26T20:45:12.431Z,19915.47
2022-08-26T20:47:41.706Z,19891.06
2022-08-26T20:50:10.700Z,19887.00
2022-08-26T20:52:38.898Z,19874.81
2022-08-26T20:55:08.398Z,19840.25
2022-08-26T20:57:37.883Z,19826.03
2022-08-26T21:00:07.814Z,19817.91
2022-08-26T21:02:37.015Z,19891.06
2022-08-26T21:05:06.766Z,19870.75
2022-08-26T21:07:35.663Z,19862.63
2022-08-26T21:10:05.035Z,19876.84
2022-08-26T21:12:33.167Z,19866.69
2022-08-26T21:15:02.843Z,19864.66
2022-08-26T21:17:31.314Z,19889.03
2022-08-26T21:19:59.725Z,19848.38
2022-08-26T21:22:28.409Z,19870.75
2022-08-26T21:24:56.592Z,19844.31
2022-08-26T21:27:26.328Z,19830.09
2022-08-26T21:29:54.959Z,19858.56
2022-08-26T21:32:24.546Z,19805.72
2022-08-26T21:34:56.860Z,19834.16
2022-08-26T21:37:26.784Z,19826.03
2022-08-26T21:39:56.353Z,19803.69
2022-08-26T21:42:26.758Z,19811.81
2022-08-26T21:44:55.187Z,19817.91
2022-08-26T21:47:25.409Z,19795.53
2022-08-26T21:49:54.339Z,19791.47
2022-08-26T21:52:22.530Z,19789.44
2022-08-26T21:54:50.737Z,19744.75
2022-08-26T21:57:19.450Z,19797.59
2022-08-26T21:59:47.546Z,19752.88
2022-08-26T22:02:15.836Z,19754.91
2022-08-26T22:04:48.739Z,19748.81
2022-08-26T22:07:19.078Z,19720.34
2022-08-26T22:09:47.700Z,19708.16
2022-08-26T22:12:18.064Z,19722.38
2022-08-26T22:14:47.017Z,19693.94
2022-08-26T22:17:15.912Z,19704.09
2022-08-26T22:19:45.904Z,19704.09
2022-08-26T22:22:14.950Z,19732.53
2022-08-26T22:24:44.128Z,19689.88
2022-08-26T22:27:12.986Z,19691.91
2022-08-26T22:29:41.292Z,19663.44
2022-08-26T22:32:09.618Z,19647.19
2022-08-26T22:34:37.870Z,19639.06
2022-08-26T22:37:07.498Z,19663.44
2022-08-26T22:39:35.611Z,19665.47
2022-08-26T22:42:04.406Z,19663.44
2022-08-26T22:44:36.349Z,19630.94
2022-08-26T22:47:04.650Z,19641.09
2022-08-26T22:49:32.797Z,19626.88
2022-08-26T22:52:00.950Z,19594.34
2022-08-26T22:54:30.460Z,19632.97
2022-08-26T22:56:58.882Z,19624.84
2022-08-26T22:59:27.020Z,19565.91
2022-08-26T23:01:55.179Z,19553.72
2022-08-26T23:04:23.326Z,19543.53
2022-08-26T23:06:51.472Z,19588.25
2022-08-26T23:09:20.528Z,19561.84
2022-08-26T23:11:51.339Z,19545.56
2022-08-26T23:14:20.223Z,19592.31
2022-08-26T23:16:48.728Z,19555.75
2022-08-26T23:19:19.888Z,19509.00
2022-08-26T23:21:49.413Z,19521.19
2022-08-26T23:24:18.898Z,19541.50
2022-08-26T23:26:47.726Z,19529.31
2022-08-26T23:29:17.413Z,19500.88
2022-08-26T23:31:45.748Z,19515.09
2022-08-26T23:34:31.672Z,19537.44
2022-08-26T23:37:00.992Z,19506.97
2022-08-26T23:39:29.701Z,19511.03
2022-08-26T23:41:58.155Z,19517.13
2022-08-26T23:44:28.495Z,19517.13
2022-08-26T23:46:56.897Z,19482.56
2022-08-26T23:49:26.397Z,19500.88
2022-08-26T23:52:12.835Z,19500.88
2022-08-26T23:54:41.573Z,19521.19
2022-08-26T23:57:10.882Z,19506.97
2022-08-26T23:59:40.750Z,19478.50
